sensor_id;sensor_type;location;lat;lon;timestamp;pressure;altitude;pressure_sealevel;temperature;humidity
65157;BME280;52745;49.794;18.258;2022-12-18T00:01:31;-15799.63;;;-5.14;90.66
65157;BME280;52745;49.794;18.258;2022-12-18T00:04:00;-15801.97;;;-5.06;90.63
65157;BME280;52745;49.794;18.258;2022-12-18T00:06:29;-15801.69;;;-5.07;90.68
65157;BME280;52745;49.794;18.258;2022-12-18T00:08:57;-15802.38;;;-5.04;89.72
65157;BME280;52745;49.794;18.258;2022-12-18T00:11:26;-15803.63;;;-5.00;89.93
65157;BME280;52745;49.794;18.258;2022-12-18T00:13:54;-15809.38;;;-4.78;89.29
65157;BME280;52745;49.794;18.258;2022-12-18T00:16:23;-15810.75;;;-4.73;88.59
65157;BME280;52745;49.794;18.258;2022-12-18T00:18:52;-15813.91;;;-4.61;88.26
65157;BME280;52745;49.794;18.258;2022-12-18T00:21:20;-15810.91;;;-4.72;88.29
65157;BME280;52745;49.794;18.258;2022-12-18T00:23:48;-15809.53;;;-4.78;88.85
65157;BME280;52745;49.794;18.258;2022-12-18T00:26:17;-15809.53;;;-4.78;88.93
65157;BME280;52745;49.794;18.258;2022-12-18T00:28:45;-15810.91;;;-4.72;88.48
65157;BME280;52745;49.794;18.258;2022-12-18T00:31:14;-15809.53;;;-4.78;88.28
65157;BME280;52745;49.794;18.258;2022-12-18T00:33:41;-15805.25;;;-4.93;89.26
65157;BME280;52745;49.794;18.258;2022-12-18T00:36:15;-15802.38;;;-5.04;89.84
65157;BME280;52745;49.794;18.258;2022-12-18T00:38:42;-15802.66;;;-5.03;89.95
65157;BME280;52745;49.794;18.258;2022-12-18T00:41:10;-15807.06;;;-4.87;89.64
65157;BME280;52745;49.794;18.258;2022-12-18T00:43:38;-15811.44;;;-4.70;88.94
65157;BME280;52745;49.794;18.258;2022-12-18T00:46:06;-15815.84;;;-4.54;88.06
65157;BME280;52745;49.794;18.258;2022-12-18T00:48:32;-15821.31;;;-4.33;87.39
65157;BME280;52745;49.794;18.258;2022-12-18T00:50:59;-15822.56;;;-4.29;87.43
65157;BME280;52745;49.794;18.258;2022-12-18T00:53:25;-15816.94;;;-4.50;87.13
65157;BME280;52745;49.794;18.258;2022-12-18T00:55:52;-15813.38;;;-4.63;87.41
65157;BME280;52745;49.794;18.258;2022-12-18T00:58:18;-15808.69;;;-4.81;88.12
65157;BME280;52745;49.794;18.258;2022-12-18T01:00:45;-15812.69;;;-4.66;87.67
65157;BME280;52745;49.794;18.258;2022-12-18T01:03:14;-15818.84;;;-4.43;87.33
65157;BME280;52745;49.794;18.258;2022-12-18T01:05:43;-15821.31;;;-4.33;86.63
65157;BME280;52745;49.794;18.258;2022-12-18T01:08:11;-15819.94;;;-4.39;86.48
65157;BME280;52745;49.794;18.258;2022-12-18T01:10:40;-15817.47;;;-4.48;86.33
65157;BME280;52745;49.794;18.258;2022-12-18T01:13:07;-15815.28;;;-4.56;86.62
65157;BME280;52745;49.794;18.258;2022-12-18T01:15:34;-15811.16;;;-4.71;87.07
65157;BME280;52745;49.794;18.258;2022-12-18T01:18:01;-15811.84;;;-4.69;87.31
65157;BME280;52745;49.794;18.258;2022-12-18T01:20:27;-15810.34;;;-4.74;87.70
65157;BME280;52745;49.794;18.258;2022-12-18T01:22:54;-15808.56;;;-4.81;87.55
65157;BME280;52745;49.794;18.258;2022-12-18T01:25:20;-15802.53;;;-5.04;88.16
65157;BME280;52745;49.794;18.258;2022-12-18T01:27:46;-15805.00;;;-4.94;88.27
65157;BME280;52745;49.794;18.258;2022-12-18T01:30:13;-15795.50;;;-5.30;89.37
65157;BME280;52745;49.794;18.258;2022-12-18T01:32:40;-15797.84;;;-5.21;89.42
65157;BME280;52745;49.794;18.258;2022-12-18T01:35:07;-15793.59;;;-5.37;89.28
65157;BME280;52745;49.794;18.258;2022-12-18T01:37:33;-15791.81;;;-5.44;89.64
65157;BME280;52745;49.794;18.258;2022-12-18T01:40:00;-15795.25;;;-5.31;89.37
65157;BME280;52745;49.794;18.258;2022-12-18T01:42:26;-15802.25;;;-5.05;88.89
65157;BME280;52745;49.794;18.258;2022-12-18T01:45:00;-15809.53;;;-4.78;87.41
65157;BME280;52745;49.794;18.258;2022-12-18T01:52:45;-15820.66;;;-4.36;85.63
65157;BME280;52745;49.794;18.258;2022-12-18T01:55:15;-15825.84;;;-4.17;85.99
65157;BME280;52745;49.794;18.258;2022-12-18T01:57:42;-15826.28;;;-4.15;84.37
65157;BME280;52745;49.794;18.258;2022-12-18T02:00:19;-15829.28;;;-4.04;84.50
65157;BME280;52745;49.794;18.258;2022-12-18T02:02:47;-15828.59;;;-4.06;84.01
65157;BME280;52745;49.794;18.258;2022-12-18T02:05:18;-15827.38;;;-4.11;83.69
65157;BME280;52745;49.794;18.258;2022-12-18T02:10:45;-15831.50;;;-3.96;82.94
65157;BME280;52745;49.794;18.258;2022-12-18T02:16:12;-15827.38;;;-4.11;83.86
65157;BME280;52745;49.794;18.258;2022-12-18T02:18:45;-15826.28;;;-4.15;83.70
65157;BME280;52745;49.794;18.258;2022-12-18T02:22:26;-15828.06;;;-4.08;83.57
65157;BME280;52745;49.794;18.258;2022-12-18T02:27:20;-15820.09;;;-4.38;83.23
65157;BME280;52745;49.794;18.258;2022-12-18T02:29:53;-15821.31;;;-4.33;83.44
65157;BME280;52745;49.794;18.258;2022-12-18T02:32:39;-15821.59;;;-4.32;83.59
65157;BME280;52745;49.794;18.258;2022-12-18T02:35:10;-15815.00;;;-4.57;84.75
65157;BME280;52745;49.794;18.258;2022-12-18T02:37:40;-15809.78;;;-4.76;84.81
65157;BME280;52745;49.794;18.258;2022-12-18T02:40:08;-15807.59;;;-4.85;85.20
65157;BME280;52745;49.794;18.258;2022-12-18T02:42:37;-15807.06;;;-4.87;85.93
65157;BME280;52745;49.794;18.258;2022-12-18T02:45:06;-15810.34;;;-4.74;85.40
65157;BME280;52745;49.794;18.258;2022-12-18T02:47:38;-15809.78;;;-4.76;85.45
65157;BME280;52745;49.794;18.258;2022-12-18T02:50:30;-15804.03;;;-4.98;85.58
65157;BME280;52745;49.794;18.258;2022-12-18T02:53:33;-15808.97;;;-4.80;86.01
65157;BME280;52745;49.794;18.258;2022-12-18T02:59:13;-15803.19;;;-5.01;86.47
65157;BME280;52745;49.794;18.258;2022-12-18T03:02:12;-15803.63;;;-5.00;86.75
65157;BME280;52745;49.794;18.258;2022-12-18T03:04:48;-15810.34;;;-4.74;86.04
65157;BME280;52745;49.794;18.258;2022-12-18T03:07:27;-15803.06;;;-5.02;86.67
65157;BME280;52745;49.794;18.258;2022-12-18T03:09:57;-15796.63;;;-5.26;87.24
65157;BME280;52745;49.794;18.258;2022-12-18T03:12:32;-15795.25;;;-5.31;88.06
65157;BME280;52745;49.794;18.258;2022-12-18T03:17:46;-15802.78;;;-5.03;87.26
65157;BME280;52745;49.794;18.258;2022-12-18T03:20:19;-15802.94;;;-5.02;86.51
65157;BME280;52745;49.794;18.258;2022-12-18T03:22:52;-15807.47;;;-4.85;86.08
65157;BME280;52745;49.794;18.258;2022-12-18T03:25:21;-15804.72;;;-4.95;85.98
65157;BME280;52745;49.794;18.258;2022-12-18T03:27:56;-15794.97;;;-5.32;87.92
65157;BME280;52745;49.794;18.258;2022-12-18T03:30:26;-15791.53;;;-5.45;88.35
65157;BME280;52745;49.794;18.258;2022-12-18T03:33:15;-15793.72;;;-5.36;88.71
65157;BME280;52745;49.794;18.258;2022-12-18T03:35:46;-15798.53;;;-5.18;88.45
65157;BME280;52745;49.794;18.258;2022-12-18T03:38:13;-15804.03;;;-4.98;88.33
65157;BME280;52745;49.794;18.258;2022-12-18T03:40:59;-15810.34;;;-4.74;87.54
65157;BME280;52745;49.794;18.258;2022-12-18T03:52:36;-15806.78;;;-4.88;86.29
65157;BME280;52745;49.794;18.258;2022-12-18T03:55:07;-15807.06;;;-4.87;86.66
65157;BME280;52745;49.794;18.258;2022-12-18T03:57:35;-15806.91;;;-4.87;87.31
65157;BME280;52745;49.794;18.258;2022-12-18T04:00:13;-15807.88;;;-4.84;87.17
65157;BME280;52745;49.794;18.258;2022-12-18T04:02:46;-15806.22;;;-4.90;87.08
65157;BME280;52745;49.794;18.258;2022-12-18T04:05:20;-15805.00;;;-4.94;87.83
65157;BME280;52745;49.794;18.258;2022-12-18T04:07:49;-15808.84;;;-4.80;87.63
65157;BME280;52745;49.794;18.258;2022-12-18T04:10:18;-15809.78;;;-4.76;87.09
65157;BME280;52745;49.794;18.258;2022-12-18T04:12:45;-15816.66;;;-4.51;86.10
65157;BME280;52745;49.794;18.258;2022-12-18T04:15:13;-15817.75;;;-4.47;85.22
65157;BME280;52745;49.794;18.258;2022-12-18T04:17:47;-15815.56;;;-4.55;85.21
65157;BME280;52745;49.794;18.258;2022-12-18T04:20:14;-15815.16;;;-4.57;85.15
65157;BME280;52745;49.794;18.258;2022-12-18T04:22:43;-15818.59;;;-4.44;84.39
65157;BME280;52745;49.794;18.258;2022-12-18T04:25:10;-15824.06;;;-4.23;83.46
65157;BME280;52745;49.794;18.258;2022-12-18T04:27:43;-15823.38;;;-4.26;83.72
65157;BME280;52745;49.794;18.258;2022-12-18T04:30:10;-15820.09;;;-4.38;84.63
65157;BME280;52745;49.794;18.258;2022-12-18T04:32:38;-15818.03;;;-4.46;85.60
65157;BME280;52745;49.794;18.258;2022-12-18T04:35:04;-15822.00;;;-4.31;85.23
65157;BME280;52745;49.794;18.258;2022-12-18T04:37:33;-15822.97;;;-4.27;84.87
65157;BME280;52745;49.794;18.258;2022-12-18T04:40:00;-15824.63;;;-4.21;84.57
65157;BME280;52745;49.794;18.258;2022-12-18T04:42:36;-15826.28;;;-4.15;84.63
65157;BME280;52745;49.794;18.258;2022-12-18T04:45:03;-15826.53;;;-4.14;84.46
65157;BME280;52745;49.794;18.258;2022-12-18T04:47:30;-15822.16;;;-4.30;84.16
65157;BME280;52745;49.794;18.258;2022-12-18T04:49:56;-15818.59;;;-4.44;84.37
65157;BME280;52745;49.794;18.258;2022-12-18T04:52:23;-15810.06;;;-4.75;85.31
65157;BME280;52745;49.794;18.258;2022-12-18T04:54:49;-15807.31;;;-4.86;85.99
65157;BME280;52745;49.794;18.258;2022-12-18T04:57:16;-15804.31;;;-4.97;86.80
65157;BME280;52745;49.794;18.258;2022-12-18T04:59:44;-15804.31;;;-4.97;86.77
65157;BME280;52745;49.794;18.258;2022-12-18T05:02:11;-15799.34;;;-5.15;86.94
65157;BME280;52745;49.794;18.258;2022-12-18T05:04:37;-15798.94;;;-5.17;87.61
65157;BME280;52745;49.794;18.258;2022-12-18T05:07:04;-15799.78;;;-5.14;87.35
65157;BME280;52745;49.794;18.258;2022-12-18T05:09:30;-15799.34;;;-5.15;87.09
65157;BME280;52745;49.794;18.258;2022-12-18T05:11:57;-15805.13;;;-4.94;87.13
65157;BME280;52745;49.794;18.258;2022-12-18T05:14:23;-15807.75;;;-4.84;86.30
65157;BME280;52745;49.794;18.258;2022-12-18T05:16:50;-15811.56;;;-4.70;85.93
65157;BME280;52745;49.794;18.258;2022-12-18T05:19:16;-15814.19;;;-4.60;85.35
65157;BME280;52745;49.794;18.258;2022-12-18T05:21:43;-15817.75;;;-4.47;84.80
65157;BME280;52745;49.794;18.258;2022-12-18T05:24:09;-15815.84;;;-4.54;85.09
65157;BME280;52745;49.794;18.258;2022-12-18T05:26:36;-15817.06;;;-4.49;84.45
65157;BME280;52745;49.794;18.258;2022-12-18T05:29:02;-15817.06;;;-4.49;84.82
65157;BME280;52745;49.794;18.258;2022-12-18T05:31:29;-15814.75;;;-4.58;84.97
65157;BME280;52745;49.794;18.258;2022-12-18T05:33:55;-15815.97;;;-4.53;85.16
65157;BME280;52745;49.794;18.258;2022-12-18T05:36:25;-15818.72;;;-4.43;84.80
65157;BME280;52745;49.794;18.258;2022-12-18T05:38:51;-15819.25;;;-4.41;85.17
65157;BME280;52745;49.794;18.258;2022-12-18T05:41:18;-15822.69;;;-4.28;84.13
65157;BME280;52745;49.794;18.258;2022-12-18T05:43:44;-15821.75;;;-4.32;84.08
65157;BME280;52745;49.794;18.258;2022-12-18T05:46:14;-15821.88;;;-4.31;84.48
65157;BME280;52745;49.794;18.258;2022-12-18T05:48:41;-15822.44;;;-4.29;84.11
65157;BME280;52745;49.794;18.258;2022-12-18T05:51:14;-15821.59;;;-4.32;84.14
65157;BME280;52745;49.794;18.258;2022-12-18T05:53:41;-15816.38;;;-4.52;85.96
65157;BME280;52745;49.794;18.258;2022-12-18T05:56:13;-15822.97;;;-4.27;85.65
65157;BME280;52745;49.794;18.258;2022-12-18T05:58:39;-15822.69;;;-4.28;85.26
65157;BME280;52745;49.794;18.258;2022-12-18T06:01:16;-15823.53;;;-4.25;85.73
65157;BME280;52745;49.794;18.258;2022-12-18T06:03:43;-15821.31;;;-4.33;86.01
65157;BME280;52745;49.794;18.258;2022-12-18T06:06:15;-15822.56;;;-4.29;85.95
65157;BME280;52745;49.794;18.258;2022-12-18T06:08:42;-15822.16;;;-4.30;85.85
65157;BME280;52745;49.794;18.258;2022-12-18T06:11:09;-15820.50;;;-4.37;86.11
65157;BME280;52745;49.794;18.258;2022-12-18T06:13:37;-15822.97;;;-4.27;85.56
65157;BME280;52745;49.794;18.258;2022-12-18T06:16:05;-15824.06;;;-4.23;85.05
65157;BME280;52745;49.794;18.258;2022-12-18T06:18:32;-15821.06;;;-4.34;85.13
65157;BME280;52745;49.794;18.258;2022-12-18T06:20:59;-15825.16;;;-4.19;85.59
65157;BME280;52745;49.794;18.258;2022-12-18T06:23:26;-15826.81;;;-4.13;85.52
65157;BME280;52745;49.794;18.258;2022-12-18T06:25:53;-15822.56;;;-4.29;85.11
65157;BME280;52745;49.794;18.258;2022-12-18T06:28:19;-15822.16;;;-4.30;85.16
65157;BME280;52745;49.794;18.258;2022-12-18T06:30:47;-15823.25;;;-4.26;85.13
65157;BME280;52745;49.794;18.258;2022-12-18T06:33:15;-15824.34;;;-4.22;85.16
65157;BME280;52745;49.794;18.258;2022-12-18T06:35:42;-15822.84;;;-4.28;84.79
65157;BME280;52745;49.794;18.258;2022-12-18T06:38:08;-15824.06;;;-4.23;84.38
65157;BME280;52745;49.794;18.258;2022-12-18T06:40:37;-15826.28;;;-4.15;84.17
65157;BME280;52745;49.794;18.258;2022-12-18T06:43:03;-15829.28;;;-4.04;84.38
65157;BME280;52745;49.794;18.258;2022-12-18T06:45:30;-15832.03;;;-3.93;82.64
65157;BME280;52745;49.794;18.258;2022-12-18T06:47:56;-15833.53;;;-3.88;83.57
65157;BME280;52745;49.794;18.258;2022-12-18T06:50:23;-15831.22;;;-3.97;84.80
65157;BME280;52745;49.794;18.258;2022-12-18T06:52:49;-15833.97;;;-3.86;83.95
65157;BME280;52745;49.794;18.258;2022-12-18T06:55:16;-15832.31;;;-3.92;83.27
65157;BME280;52745;49.794;18.258;2022-12-18T06:57:42;-15834.22;;;-3.85;83.24
65157;BME280;52745;49.794;18.258;2022-12-18T07:00:09;-15831.91;;;-3.94;83.67
65157;BME280;52745;49.794;18.258;2022-12-18T07:02:35;-15829.44;;;-4.03;83.76
65157;BME280;52745;49.794;18.258;2022-12-18T07:05:02;-15828.59;;;-4.06;84.06
65157;BME280;52745;49.794;18.258;2022-12-18T07:07:29;-15826.81;;;-4.13;84.51
65157;BME280;52745;49.794;18.258;2022-12-18T07:09:56;-15825.72;;;-4.17;84.62
65157;BME280;52745;49.794;18.258;2022-12-18T07:12:22;-15830.13;;;-4.01;84.25
65157;BME280;52745;49.794;18.258;2022-12-18T07:14:49;-15833.13;;;-3.89;84.19
65157;BME280;52745;49.794;18.258;2022-12-18T07:17:15;-15833.28;;;-3.89;82.80
65157;BME280;52745;49.794;18.258;2022-12-18T07:19:42;-15835.06;;;-3.82;83.72
65157;BME280;52745;49.794;18.258;2022-12-18T07:22:08;-15832.03;;;-3.93;83.61
65157;BME280;52745;49.794;18.258;2022-12-18T07:24:36;-15830.25;;;-4.00;83.97
65157;BME280;52745;49.794;18.258;2022-12-18T07:27:02;-15831.75;;;-3.95;83.73
65157;BME280;52745;49.794;18.258;2022-12-18T07:29:32;-15833.13;;;-3.89;84.39
65157;BME280;52745;49.794;18.258;2022-12-18T07:32:11;-15838.06;;;-3.71;82.21
65157;BME280;52745;49.794;18.258;2022-12-18T07:34:39;-15839.84;;;-3.64;81.63
65157;BME280;52745;49.794;18.258;2022-12-18T07:37:05;-15841.66;;;-3.58;81.73
65157;BME280;52745;49.794;18.258;2022-12-18T07:39:32;-15841.09;;;-3.60;81.26
65157;BME280;52745;49.794;18.258;2022-12-18T07:41:58;-15840.81;;;-3.61;80.88
65157;BME280;52745;49.794;18.258;2022-12-18T07:44:44;-15840.00;;;-3.64;80.24
65157;BME280;52745;49.794;18.258;2022-12-18T07:47:10;-15840.81;;;-3.61;80.46
65157;BME280;52745;49.794;18.258;2022-12-18T07:49:39;-15839.31;;;-3.66;80.34
65157;BME280;52745;49.794;18.258;2022-12-18T07:52:21;-15838.63;;;-3.69;80.83
65157;BME280;52745;49.794;18.258;2022-12-18T07:54:48;-15840.53;;;-3.62;80.97
65157;BME280;52745;49.794;18.258;2022-12-18T07:57:17;-15841.78;;;-3.57;80.57
65157;BME280;52745;49.794;18.258;2022-12-18T07:59:45;-15844.94;;;-3.45;79.81
65157;BME280;52745;49.794;18.258;2022-12-18T08:02:12;-15844.66;;;-3.46;79.95
65157;BME280;52745;49.794;18.258;2022-12-18T08:04:57;-15841.91;;;-3.57;79.27
65157;BME280;52745;49.794;18.258;2022-12-18T08:07:24;-15843.56;;;-3.50;78.71
65157;BME280;52745;49.794;18.258;2022-12-18T08:09:51;-15840.69;;;-3.61;79.60
65157;BME280;52745;49.794;18.258;2022-12-18T08:12:22;-15836.69;;;-3.76;80.72
65157;BME280;52745;49.794;18.258;2022-12-18T08:14:49;-15840.41;;;-3.62;80.44
65157;BME280;52745;49.794;18.258;2022-12-18T08:17:15;-15841.66;;;-3.58;80.23
65157;BME280;52745;49.794;18.258;2022-12-18T08:19:42;-15840.69;;;-3.61;80.20
65157;BME280;52745;49.794;18.258;2022-12-18T08:22:09;-15843.56;;;-3.50;80.20
65157;BME280;52745;49.794;18.258;2022-12-18T08:24:36;-15843.56;;;-3.50;80.61
65157;BME280;52745;49.794;18.258;2022-12-18T08:27:03;-15847.13;;;-3.37;79.53
65157;BME280;52745;49.794;18.258;2022-12-18T08:29:29;-15849.06;;;-3.30;79.16
65157;BME280;52745;49.794;18.258;2022-12-18T08:31:56;-15848.22;;;-3.33;79.54
65157;BME280;52745;49.794;18.258;2022-12-18T08:34:23;-15848.09;;;-3.34;79.08
65157;BME280;52745;49.794;18.258;2022-12-18T08:36:49;-15843.69;;;-3.50;78.69
65157;BME280;52745;49.794;18.258;2022-12-18T08:39:16;-15846.19;;;-3.41;78.60
65157;BME280;52745;49.794;18.258;2022-12-18T08:41:42;-15845.91;;;-3.42;79.15
65157;BME280;52745;49.794;18.258;2022-12-18T08:44:29;-15847.41;;;-3.36;79.03
65157;BME280;52745;49.794;18.258;2022-12-18T08:47:05;-15845.06;;;-3.45;80.84
65157;BME280;52745;49.794;18.258;2022-12-18T08:49:33;-15844.66;;;-3.46;79.05
65157;BME280;52745;49.794;18.258;2022-12-18T08:52:00;-15836.84;;;-3.76;80.85
65157;BME280;52745;49.794;18.258;2022-12-18T08:54:27;-15841.66;;;-3.58;80.73
65157;BME280;52745;49.794;18.258;2022-12-18T08:56:53;-15842.47;;;-3.55;81.16
65157;BME280;52745;49.794;18.258;2022-12-18T08:59:20;-15843.00;;;-3.53;80.50
65157;BME280;52745;49.794;18.258;2022-12-18T09:01:47;-15841.91;;;-3.57;80.32
65157;BME280;52745;49.794;18.258;2022-12-18T09:04:14;-15839.03;;;-3.67;80.22
65157;BME280;52745;49.794;18.258;2022-12-18T09:06:40;-15844.66;;;-3.46;80.31
65157;BME280;52745;49.794;18.258;2022-12-18T09:09:08;-15846.31;;;-3.40;79.44
65157;BME280;52745;49.794;18.258;2022-12-18T09:11:35;-15841.66;;;-3.58;80.28
65157;BME280;52745;49.794;18.258;2022-12-18T09:14:02;-15844.53;;;-3.47;79.34
65157;BME280;52745;49.794;18.258;2022-12-18T09:16:28;-15845.47;;;-3.43;79.62
65157;BME280;52745;49.794;18.258;2022-12-18T09:18:56;-15845.47;;;-3.43;79.40
65157;BME280;52745;49.794;18.258;2022-12-18T09:21:27;-15846.59;;;-3.39;79.09
65157;BME280;52745;49.794;18.258;2022-12-18T09:23:55;-15842.06;;;-3.56;80.23
65157;BME280;52745;49.794;18.258;2022-12-18T09:26:22;-15844.66;;;-3.46;79.97
65157;BME280;52745;49.794;18.258;2022-12-18T09:28:50;-15834.50;;;-3.84;80.33
65157;BME280;52745;49.794;18.258;2022-12-18T09:31:18;-15829.28;;;-4.04;81.94
65157;BME280;52745;49.794;18.258;2022-12-18T09:33:45;-15833.13;;;-3.89;81.73
65157;BME280;52745;49.794;18.258;2022-12-18T09:36:13;-15839.84;;;-3.64;80.71
65157;BME280;52745;49.794;18.258;2022-12-18T09:38:40;-15842.19;;;-3.56;79.46
65157;BME280;52745;49.794;18.258;2022-12-18T09:41:25;-15842.75;;;-3.54;79.50
65157;BME280;52745;49.794;18.258;2022-12-18T09:44:03;-15845.47;;;-3.43;78.66
65157;BME280;52745;49.794;18.258;2022-12-18T09:46:37;-15851.25;;;-3.22;77.36
65157;BME280;52745;49.794;18.258;2022-12-18T09:49:12;-15852.34;;;-3.18;77.42
65157;BME280;52745;49.794;18.258;2022-12-18T09:51:46;-15855.38;;;-3.06;77.44
65157;BME280;52745;49.794;18.258;2022-12-18T09:54:26;-15852.75;;;-3.16;76.85
65157;BME280;52745;49.794;18.258;2022-12-18T09:56:53;-15855.09;;;-3.07;77.69
65157;BME280;52745;49.794;18.258;2022-12-18T09:59:24;-15854.41;;;-3.10;77.14
65157;BME280;52745;49.794;18.258;2022-12-18T10:01:52;-15856.19;;;-3.03;77.31
65157;BME280;52745;49.794;18.258;2022-12-18T10:04:29;-15852.22;;;-3.18;77.80
65157;BME280;52745;49.794;18.258;2022-12-18T10:07:08;-15853.72;;;-3.13;77.92
65157;BME280;52745;49.794;18.258;2022-12-18T10:15:48;-15849.06;;;-3.30;77.53
65157;BME280;52745;49.794;18.258;2022-12-18T10:21:09;-15856.47;;;-3.02;76.24
65157;BME280;52745;49.794;18.258;2022-12-18T10:26:12;-15847.13;;;-3.37;77.19
65157;BME280;52745;49.794;18.258;2022-12-18T10:28:40;-15850.69;;;-3.24;76.97
65157;BME280;52745;49.794;18.258;2022-12-18T10:31:14;-15854.13;;;-3.11;76.81
65157;BME280;52745;49.794;18.258;2022-12-18T10:33:43;-15854.53;;;-3.09;76.77
65157;BME280;52745;49.794;18.258;2022-12-18T10:36:10;-15858.94;;;-2.93;75.83
65157;BME280;52745;49.794;18.258;2022-12-18T10:38:37;-15855.09;;;-3.07;75.81
65157;BME280;52745;49.794;18.258;2022-12-18T10:41:24;-15848.50;;;-3.32;75.86
65157;BME280;52745;49.794;18.258;2022-12-18T10:44:17;-15850.69;;;-3.24;76.01
65157;BME280;52745;49.794;18.258;2022-12-18T10:46:46;-15854.53;;;-3.09;75.99
65157;BME280;52745;49.794;18.258;2022-12-18T10:51:51;-15853.31;;;-3.14;74.95
65157;BME280;52745;49.794;18.258;2022-12-18T10:54:21;-15856.47;;;-3.02;74.70
65157;BME280;52745;49.794;18.258;2022-12-18T10:56:49;-15855.38;;;-3.06;73.95
65157;BME280;52745;49.794;18.258;2022-12-18T10:59:17;-15850.84;;;-3.23;74.66
65157;BME280;52745;49.794;18.258;2022-12-18T11:02:07;-15855.38;;;-3.06;74.65
65157;BME280;52745;49.794;18.258;2022-12-18T11:04:51;-15854.53;;;-3.09;74.73
65157;BME280;52745;49.794;18.258;2022-12-18T11:07:18;-15860.84;;;-2.86;74.02
65157;BME280;52745;49.794;18.258;2022-12-18T11:10:00;-15863.59;;;-2.76;73.97
65157;BME280;52745;49.794;18.258;2022-12-18T11:12:29;-15866.63;;;-2.64;73.54
65157;BME280;52745;49.794;18.258;2022-12-18T11:14:56;-15864.41;;;-2.73;72.63
65157;BME280;52745;49.794;18.258;2022-12-18T11:17:31;-15854.13;;;-3.11;74.03
65157;BME280;52745;49.794;18.258;2022-12-18T11:20:46;-15854.53;;;-3.09;74.05
65157;BME280;52745;49.794;18.258;2022-12-18T11:22:59;-15849.06;;;-3.30;74.58
65157;BME280;52745;49.794;18.258;2022-12-18T11:25:26;-15853.16;;;-3.15;74.32
65157;BME280;52745;49.794;18.258;2022-12-18T11:28:40;-15860.16;;;-2.88;74.01
65157;BME280;52745;49.794;18.258;2022-12-18T11:33:40;-15862.22;;;-2.81;73.12
65157;BME280;52745;49.794;18.258;2022-12-18T11:36:08;-15862.22;;;-2.81;72.96
65157;BME280;52745;49.794;18.258;2022-12-18T11:38:36;-15857.16;;;-3.00;73.34
65157;BME280;52745;49.794;18.258;2022-12-18T11:43:49;-15865.38;;;-2.69;73.38
65157;BME280;52745;49.794;18.258;2022-12-18T11:46:23;-15871.84;;;-2.45;72.66
65157;BME280;52745;49.794;18.258;2022-12-18T11:49:07;-15866.22;;;-2.66;72.68
65157;BME280;52745;49.794;18.258;2022-12-18T11:51:38;-15860.84;;;-2.86;73.37
65157;BME280;52745;49.794;18.258;2022-12-18T11:54:14;-15852.91;;;-3.16;73.79
65157;BME280;52745;49.794;18.258;2022-12-18T11:56:43;-15851.81;;;-3.20;74.36
65157;BME280;52745;49.794;18.258;2022-12-18T12:01:55;-15865.78;;;-2.67;72.00
65157;BME280;52745;49.794;18.258;2022-12-18T12:04:28;-15876.50;;;-2.27;71.01
65157;BME280;52745;49.794;18.258;2022-12-18T12:15:10;-15888.56;;;-1.82;67.96
65157;BME280;52745;49.794;18.258;2022-12-18T12:17:45;-15893.66;;;-1.63;67.54
65157;BME280;52745;49.794;18.258;2022-12-18T12:20:31;-15900.38;;;-1.38;67.03
65157;BME280;52745;49.794;18.258;2022-12-18T12:23:14;-15899.41;;;-1.42;66.44
65157;BME280;52745;49.794;18.258;2022-12-18T12:25:47;-15906.25;;;-1.16;66.56
65157;BME280;52745;49.794;18.258;2022-12-18T12:31:09;-15898.84;;;-1.44;67.08
65157;BME280;52745;49.794;18.258;2022-12-18T12:33:58;-15904.06;;;-1.25;66.42
65157;BME280;52745;49.794;18.258;2022-12-18T12:36:30;-15900.91;;;-1.36;66.40
65157;BME280;52745;49.794;18.258;2022-12-18T12:39:01;-15911.34;;;-0.97;65.75
65157;BME280;52745;49.794;18.258;2022-12-18T12:41:30;-15907.22;;;-1.13;65.28
65157;BME280;52745;49.794;18.258;2022-12-18T12:44:17;-15903.66;;;-1.26;67.60
65157;BME280;52745;49.794;18.258;2022-12-18T12:46:46;-15907.63;;;-1.11;65.90
65157;BME280;52745;49.794;18.258;2022-12-18T12:49:16;-15908.44;;;-1.08;66.30
65157;BME280;52745;49.794;18.258;2022-12-18T12:51:45;-15909.97;;;-1.02;65.39
65157;BME280;52745;49.794;18.258;2022-12-18T12:54:19;-15911.47;;;-0.97;65.80
65157;BME280;52745;49.794;18.258;2022-12-18T12:59:41;-15906.94;;;-1.14;65.92
65157;BME280;52745;49.794;18.258;2022-12-18T13:04:54;-15903.94;;;-1.25;65.94
65157;BME280;52745;49.794;18.258;2022-12-18T13:07:32;-15899.25;;;-1.42;66.61
65157;BME280;52745;49.794;18.258;2022-12-18T13:10:12;-15896.94;;;-1.51;67.03
65157;BME280;52745;49.794;18.258;2022-12-18T13:15:39;-15888.56;;;-1.82;67.99
65157;BME280;52745;49.794;18.258;2022-12-18T13:20:36;-15878.97;;;-2.18;69.27
65157;BME280;52745;49.794;18.258;2022-12-18T13:28:16;-15869.38;;;-2.54;69.59
65157;BME280;52745;49.794;18.258;2022-12-18T13:30:44;-15865.94;;;-2.67;71.09
65157;BME280;52745;49.794;18.258;2022-12-18T13:36:00;-15858.78;;;-2.94;72.08
65157;BME280;52745;49.794;18.258;2022-12-18T13:41:00;-15859.22;;;-2.92;72.12
65157;BME280;52745;49.794;18.258;2022-12-18T13:43:31;-15860.31;;;-2.88;71.72
65157;BME280;52745;49.794;18.258;2022-12-18T13:48:29;-15850.16;;;-3.26;73.59
65157;BME280;52745;49.794;18.258;2022-12-18T13:50:59;-15850.97;;;-3.23;73.13
65157;BME280;52745;49.794;18.258;2022-12-18T13:56:21;-15846.72;;;-3.39;73.74
65157;BME280;52745;49.794;18.258;2022-12-18T13:59:05;-15841.38;;;-3.59;74.34
65157;BME280;52745;49.794;18.258;2022-12-18T14:01:31;-15839.44;;;-3.66;74.99
65157;BME280;52745;49.794;18.258;2022-12-18T14:04:12;-15839.19;;;-3.67;74.82
65157;BME280;52745;49.794;18.258;2022-12-18T14:06:42;-15836.69;;;-3.76;75.40
65157;BME280;52745;49.794;18.258;2022-12-18T14:09:10;-15835.19;;;-3.82;75.35
65157;BME280;52745;49.794;18.258;2022-12-18T14:11:38;-15833.00;;;-3.90;75.67
65157;BME280;52745;49.794;18.258;2022-12-18T14:14:05;-15830.94;;;-3.98;76.37
65157;BME280;52745;49.794;18.258;2022-12-18T14:16:33;-15831.22;;;-3.97;76.67
65157;BME280;52745;49.794;18.258;2022-12-18T14:19:00;-15830.13;;;-4.01;76.30
65157;BME280;52745;49.794;18.258;2022-12-18T14:21:27;-15828.19;;;-4.08;77.04
65157;BME280;52745;49.794;18.258;2022-12-18T14:26:31;-15825.44;;;-4.18;77.08
65157;BME280;52745;49.794;18.258;2022-12-18T14:29:00;-15826.00;;;-4.16;77.43